Time;durP1;ratioP1;P1;durP2;ratioP2;P2;SDS_P1;SDS_P2;PMS_P1;PMS_P2;Temp;Humidity;BMP_temperature;BMP_pressure;BME280_temperature;BME280_humidity;BME280_pressure;Samples;Min_cycle;Max_cycle;Signal;HPM_P1;HPM_P2
2023/04/01 00:01:58;;;;;;;3.43;0.90;;;7.80;60.00;;;;;;5025210;28;46534;-71
2023/04/01 00:04:23;;;;;;;2.13;0.93;;;7.80;60.10;;;;;;5028245;28;46004;-71
2023/04/01 00:06:49;;;;;;;3.07;0.80;;;7.80;60.30;;;;;;5027240;28;46739;-70
2023/04/01 00:09:15;;;;;;;2.33;0.70;;;7.80;60.10;;;;;;5025768;28;46386;-70
2023/04/01 00:11:40;;;;;;;1.60;0.70;;;7.80;60.10;;;;;;5029191;28;46307;-70
2023/04/01 00:14:10;;;;;;;5.00;0.80;;;7.80;60.10;;;;;;5028673;28;46502;-71
2023/04/01 00:16:36;;;;;;;8.43;0.90;;;7.90;60.00;;;;;;5027723;28;46639;-71
2023/04/01 00:19:02;;;;;;;2.40;0.70;;;7.90;59.90;;;;;;5025111;28;46385;-70
2023/04/01 00:21:27;;;;;;;6.53;1.13;;;8.00;59.80;;;;;;5029652;28;46473;-71
2023/04/01 00:23:53;;;;;;;3.17;0.83;;;8.00;59.80;;;;;;5028997;28;46350;-70
2023/04/01 00:26:20;;;;;;;2.83;0.80;;;8.00;59.60;;;;;;5027012;28;46529;-71
2023/04/01 00:28:47;;;;;;;4.70;1.00;;;8.00;59.70;;;;;;5026897;28;46272;-71
2023/04/01 00:31:13;;;;;;;2.30;1.00;;;8.00;59.60;;;;;;5028913;28;46384;-71
2023/04/01 00:33:40;;;;;;;3.07;0.90;;;8.00;59.70;;;;;;5032724;28;46382;-71
2023/04/01 00:36:15;;;;;;;3.43;1.00;;;8.00;59.80;;;;;;5026626;28;46309;-71
2023/04/01 00:38:42;;;;;;;2.30;1.33;;;7.90;59.70;;;;;;5026829;28;45747;-70
2023/04/01 00:41:13;;;;;;;2.97;0.90;;;7.90;60.00;;;;;;5027591;28;46396;-71
2023/04/01 00:43:40;;;;;;;2.60;1.07;;;8.00;60.00;;;;;;5025799;28;46453;-71
2023/04/01 00:46:06;;;;;;;3.73;1.37;;;8.00;59.80;;;;;;5028829;28;46559;-70
2023/04/01 00:48:35;;;;;;;5.13;0.90;;;8.10;59.60;;;;;;5026782;28;46405;-70
2023/04/01 00:51:23;;;;;;;4.97;0.80;;;8.20;59.70;;;;;;5027811;28;46287;-71
2023/04/01 00:53:52;;;;;;;2.70;0.90;;;8.30;59.70;;;;;;5024522;28;46536;-71
2023/04/01 00:56:22;;;;;;;5.53;1.00;;;8.30;59.60;;;;;;5024746;28;47110;-70
2023/04/01 00:58:58;;;;;;;7.27;0.97;;;8.20;59.80;;;;;;5024307;28;46421;-72
2023/04/01 01:01:24;;;;;;;1.60;0.70;;;8.10;60.00;;;;;;5028026;28;46369;-71
2023/04/01 01:03:50;;;;;;;6.17;1.20;;;8.00;60.60;;;;;;5025661;28;46524;-71
2023/04/01 01:06:35;;;;;;;3.93;0.90;;;7.90;60.90;;;;;;5027483;28;46295;-71
2023/04/01 01:09:17;;;;;;;2.30;0.90;;;7.80;61.00;;;;;;5027524;28;45760;-71
2023/04/01 01:11:54;;;;;;;4.27;0.80;;;7.90;61.00;;;;;;5024186;28;46719;-70
2023/04/01 01:14:24;;;;;;;3.37;0.83;;;8.00;60.80;;;;;;5033580;28;46360;-71
2023/04/01 01:17:17;;;;;;;3.53;1.07;;;8.00;60.70;;;;;;5030885;28;48050;-71
2023/04/01 01:20:10;;;;;;;2.40;0.80;;;8.00;60.70;;;;;;5028699;28;46435;-70
2023/04/01 01:22:48;;;;;;;3.07;1.17;;;7.90;60.60;;;;;;5032353;28;46384;-70
2023/04/01 01:25:20;;;;;;;1.70;0.90;;;7.90;60.80;;;;;;5031329;28;46413;-71
2023/04/01 01:28:02;;;;;;;4.30;1.00;;;7.90;60.90;;;;;;5027296;28;46982;-71
2023/04/01 01:30:48;;;;;;;2.13;0.87;;;7.80;60.90;;;;;;5027783;28;46258;-70
2023/04/01 01:33:22;;;;;;;4.33;1.03;;;7.80;61.10;;;;;;5032264;28;45953;-70
2023/04/01 01:35:51;;;;;;;4.30;0.90;;;7.80;61.10;;;;;;5030005;28;46363;-70
2023/04/01 01:38:21;;;;;;;2.03;0.80;;;7.80;61.20;;;;;;5029362;28;46559;-71
2023/04/01 01:40:54;;;;;;;2.30;0.80;;;7.90;60.90;;;;;;5028097;28;46302;-71
2023/04/01 01:43:26;;;;;;;2.00;0.70;;;8.00;60.70;;;;;;5034818;28;45877;-70
2023/04/01 01:45:55;;;;;;;3.07;0.97;;;8.00;60.40;;;;;;5029713;28;46365;-70
2023/04/01 01:48:23;;;;;;;3.93;0.90;;;8.00;60.50;;;;;;5030304;28;46439;-71
2023/04/01 01:50:49;;;;;;;2.70;0.70;;;8.00;60.60;;;;;;5028785;28;46519;-70
2023/04/01 01:53:15;;;;;;;1.80;0.67;;;8.00;60.80;;;;;;5035627;28;46719;-71
2023/04/01 01:55:44;;;;;;;2.00;0.90;;;7.90;60.60;;;;;;5028471;28;46305;-71
2023/04/01 01:58:16;;;;;;;5.30;0.70;;;7.80;60.90;;;;;;5026565;28;46346;-70
2023/04/01 02:00:46;;;;;;;1.77;0.73;;;7.70;61.20;;;;;;5037068;28;46460;-71
2023/04/01 02:03:14;;;;;;;3.13;0.80;;;7.60;61.40;;;;;;5027620;28;46439;-70
2023/04/01 02:05:40;;;;;;;1.53;0.60;;;7.60;61.40;;;;;;5028713;28;46360;-71
2023/04/01 02:08:25;;;;;;;2.03;0.70;;;7.60;61.40;;;;;;5029023;28;46508;-71
2023/04/01 02:11:06;;;;;;;2.07;0.77;;;7.60;61.30;;;;;;5029115;28;46228;-70
2023/04/01 02:13:40;;;;;;;1.77;0.70;;;7.60;61.50;;;;;;5029665;28;46368;-71
2023/04/01 02:16:16;;;;;;;2.30;0.80;;;7.50;61.60;;;;;;5030285;28;46448;-71
2023/04/01 02:18:44;;;;;;;2.57;0.87;;;7.50;61.60;;;;;;5032207;28;46445;-70
2023/04/01 02:21:11;;;;;;;4.43;0.70;;;7.40;61.70;;;;;;5029005;28;46357;-69
2023/04/01 02:23:37;;;;;;;2.93;1.03;;;7.40;61.80;;;;;;5031664;28;46287;-70
2023/04/01 02:26:06;;;;;;;1.57;0.70;;;7.30;61.80;;;;;;5027827;28;46528;-70
2023/04/01 02:28:34;;;;;;;1.97;0.77;;;7.30;62.00;;;;;;5029126;28;46447;-70
2023/04/01 02:31:02;;;;;;;1.67;0.60;;;7.20;62.20;;;;;;5030745;28;46441;-70
2023/04/01 02:33:29;;;;;;;4.77;0.90;;;7.10;62.30;;;;;;5030318;28;46353;-70
2023/04/01 02:35:55;;;;;;;1.97;0.70;;;7.10;62.40;;;;;;5029803;28;46392;-70
2023/04/01 02:38:20;;;;;;;1.57;0.70;;;7.10;62.60;;;;;;5028121;28;46985;-71
2023/04/01 02:40:49;;;;;;;2.10;0.70;;;7.10;62.90;;;;;;5030218;28;46648;-70
2023/04/01 02:43:16;;;;;;;1.30;0.60;;;7.10;62.90;;;;;;5028148;28;46294;-70
2023/04/01 02:45:42;;;;;;;2.27;0.73;;;7.10;62.90;;;;;;5028205;28;46318;-70
2023/04/01 02:48:08;;;;;;;2.53;0.70;;;7.10;62.90;;;;;;5032521;28;46612;-70
2023/04/01 02:50:34;;;;;;;1.40;0.80;;;7.10;62.90;;;;;;5029942;28;46452;-69
2023/04/01 02:53:03;;;;;;;1.50;0.60;;;7.10;62.90;;;;;;5027502;28;46520;-70
2023/04/01 02:55:30;;;;;;;1.60;0.73;;;7.00;62.80;;;;;;5030974;28;46831;-69
2023/04/01 02:57:55;;;;;;;1.73;0.60;;;6.90;62.70;;;;;;5036794;28;47159;-70
2023/04/01 03:00:21;;;;;;;1.70;0.70;;;6.80;62.70;;;;;;5030179;28;46486;-70
2023/04/01 03:02:47;;;;;;;1.10;0.60;;;6.80;62.90;;;;;;5034529;28;46134;-70
2023/04/01 03:05:15;;;;;;;3.30;0.70;;;6.70;63.30;;;;;;5030402;28;45909;-70
2023/04/01 03:07:41;;;;;;;1.77;0.70;;;6.70;63.20;;;;;;5030990;28;47163;-70
2023/04/01 03:10:07;;;;;;;1.43;0.60;;;6.60;64.40;;;;;;5025960;28;46434;-71
2023/04/01 03:12:33;;;;;;;1.10;0.60;;;6.60;63.40;;;;;;5029905;28;46508;-71
2023/04/01 03:14:58;;;;;;;1.30;0.60;;;6.60;63.10;;;;;;5032293;28;46373;-70
2023/04/01 03:17:24;;;;;;;1.60;0.53;;;6.80;62.70;;;;;;5026433;28;46355;-71
2023/04/01 03:19:50;;;;;;;6.20;0.70;;;6.90;62.70;;;;;;5027867;28;46318;-70
2023/04/01 03:22:16;;;;;;;1.20;0.60;;;6.90;62.70;;;;;;5027883;28;46428;-70
2023/04/01 03:24:41;;;;;;;3.00;0.60;;;6.90;62.70;;;;;;5030967;28;46506;-70
2023/04/01 03:27:07;;;;;;;2.37;0.60;;;6.90;62.70;;;;;;5028801;28;46330;-70
2023/04/01 03:29:32;;;;;;;1.10;0.60;;;6.80;62.60;;;;;;5031944;28;46318;-70
2023/04/01 03:31:58;;;;;;;1.53;0.60;;;6.90;62.80;;;;;;5027790;28;46426;-71
2023/04/01 03:34:25;;;;;;;1.20;0.60;;;6.80;63.00;;;;;;5025264;28;46481;-71
2023/04/01 03:36:51;;;;;;;1.73;0.70;;;6.90;62.80;;;;;;5030695;28;46815;-70
2023/04/01 03:39:18;;;;;;;1.30;0.60;;;6.90;62.70;;;;;;5039741;28;46389;-71
2023/04/01 03:41:45;;;;;;;1.87;0.60;;;6.90;62.70;;;;;;5029409;28;46286;-71
2023/04/01 03:44:11;;;;;;;4.13;1.80;;;7.00;62.80;;;;;;5028015;28;47011;-70
2023/04/01 03:46:37;;;;;;;2.43;0.80;;;7.10;62.40;;;;;;5028037;28;47148;-70
2023/04/01 03:49:11;;;;;;;2.00;0.70;;;7.20;62.10;;;;;;5029207;28;46509;-71
2023/04/01 03:51:40;;;;;;;4.50;0.90;;;7.30;61.70;;;;;;5028660;28;46430;-70
2023/04/01 03:54:06;;;;;;;1.93;0.70;;;7.40;61.60;;;;;;5026722;28;46392;-70
2023/04/01 03:56:32;;;;;;;1.07;0.60;;;7.40;61.50;;;;;;5011288;28;48982;-71
2023/04/01 03:58:58;;;;;;;3.20;0.70;;;7.50;61.60;;;;;;5026929;28;46409;-71
2023/04/01 04:01:24;;;;;;;1.10;0.60;;;7.50;61.60;;;;;;5029287;28;46268;-71
2023/04/01 04:03:50;;;;;;;1.37;0.70;;;7.50;61.70;;;;;;5027838;28;46286;-71
2023/04/01 04:06:18;;;;;;;4.97;0.90;;;7.50;61.70;;;;;;5029204;28;46368;-71
2023/04/01 04:08:44;;;;;;;1.93;0.67;;;7.50;61.90;;;;;;5031558;28;46396;-71
2023/04/01 04:11:10;;;;;;;3.13;0.80;;;7.60;62.10;;;;;;5026657;28;46431;-70
2023/04/01 04:13:36;;;;;;;1.83;0.90;;;7.60;62.00;;;;;;5028417;28;46370;-70
2023/04/01 04:16:03;;;;;;;1.97;0.70;;;7.60;61.90;;;;;;5032114;28;46532;-69
2023/04/01 04:18:29;;;;;;;2.57;0.90;;;7.60;61.90;;;;;;5030940;28;46570;-71
2023/04/01 04:20:55;;;;;;;7.70;0.90;;;7.70;62.00;;;;;;5032082;28;46429;-71
2023/04/01 04:23:21;;;;;;;5.03;0.90;;;7.70;63.20;;;;;;5030296;28;46294;-69
2023/04/01 04:26:14;;;;;;;1.20;0.67;;;7.60;61.90;;;;;;5024903;28;46392;-71
2023/04/01 04:28:40;;;;;;;7.90;1.03;;;7.70;61.90;;;;;;5027492;28;46371;-70
2023/04/01 04:31:06;;;;;;;2.23;0.73;;;7.80;62.00;;;;;;5026992;28;45816;-71
2023/04/01 04:33:33;;;;;;;2.57;0.80;;;7.80;61.90;;;;;;5027810;28;47176;-71
2023/04/01 04:36:00;;;;;;;4.73;1.20;;;7.80;61.80;;;;;;5028502;28;46421;-69
2023/04/01 04:38:26;;;;;;;2.50;0.80;;;7.90;61.70;;;;;;5025272;28;46374;-71
2023/04/01 04:40:52;;;;;;;1.83;0.87;;;7.90;61.70;;;;;;5027755;28;46426;-70
2023/04/01 04:43:18;;;;;;;1.67;0.77;;;8.00;61.80;;;;;;5026433;28;46338;-72
2023/04/01 04:45:44;;;;;;;3.53;0.80;;;8.00;61.70;;;;;;5028688;28;47309;-71
2023/04/01 04:48:18;;;;;;;2.00;0.80;;;8.00;61.60;;;;;;5023637;28;46383;-72
2023/04/01 04:50:44;;;;;;;2.03;0.67;;;8.00;61.60;;;;;;5029336;28;46400;-71
2023/04/01 04:53:13;;;;;;;2.27;1.00;;;8.00;61.60;;;;;;5033364;28;46648;-69
2023/04/01 04:55:49;;;;;;;5.47;1.00;;;8.10;61.70;;;;;;5033220;28;46565;-70
2023/04/01 04:58:16;;;;;;;1.90;0.80;;;8.10;61.50;;;;;;5030932;28;45848;-71
2023/04/01 05:00:42;;;;;;;3.77;1.30;;;8.10;61.40;;;;;;5030872;28;46461;-71
2023/04/01 05:03:08;;;;;;;2.70;1.10;;;8.10;61.40;;;;;;5032317;28;46596;-71
2023/04/01 05:05:34;;;;;;;3.80;1.00;;;8.10;61.30;;;;;;5031937;28;46357;-71
2023/04/01 05:08:00;;;;;;;5.07;0.90;;;8.10;61.30;;;;;;5034587;28;46438;-71
2023/04/01 05:10:26;;;;;;;1.47;0.70;;;8.10;61.40;;;;;;5031654;28;46379;-71
2023/04/01 05:12:51;;;;;;;3.57;1.00;;;8.00;61.60;;;;;;5029737;28;46449;-70
2023/04/01 05:15:17;;;;;;;4.50;1.00;;;8.00;61.70;;;;;;5025867;28;46485;-71
2023/04/01 05:17:43;;;;;;;5.80;0.97;;;8.00;61.60;;;;;;5030601;28;45924;-71
2023/04/01 05:20:09;;;;;;;2.50;1.00;;;8.00;61.50;;;;;;5035369;28;46342;-71
2023/04/01 05:22:35;;;;;;;2.90;0.80;;;8.00;61.70;;;;;;5033636;28;46616;-70
2023/04/01 05:25:01;;;;;;;3.93;1.17;;;8.00;61.70;;;;;;5033610;28;46475;-71
2023/04/01 05:27:26;;;;;;;2.10;0.80;;;8.00;61.70;;;;;;5029154;28;46499;-72
2023/04/01 05:29:52;;;;;;;3.07;0.77;;;8.00;61.80;;;;;;5033836;28;46362;-72
2023/04/01 05:32:17;;;;;;;2.67;0.93;;;7.90;61.80;;;;;;5034036;28;45897;-72
2023/04/01 05:34:43;;;;;;;3.63;1.00;;;7.90;61.90;;;;;;5033816;28;47187;-71
2023/04/01 05:37:09;;;;;;;2.80;1.20;;;7.90;62.10;;;;;;5026843;28;46445;-72
2023/04/01 05:39:39;;;;;;;3.63;0.70;;;7.80;62.10;;;;;;5031289;28;46448;-71
2023/04/01 05:42:08;;;;;;;2.70;0.90;;;7.90;62.30;;;;;;5031064;28;45868;-71
2023/04/01 05:44:35;;;;;;;3.43;1.00;;;8.00;62.40;;;;;;5033586;28;46377;-70
2023/04/01 05:47:00;;;;;;;5.03;1.17;;;8.10;62.60;;;;;;5028335;28;46257;-71
2023/04/01 05:49:26;;;;;;;2.60;0.87;;;8.20;62.50;;;;;;5028973;28;45718;-72
2023/04/01 05:51:52;;;;;;;1.90;0.93;;;8.40;63.40;;;;;;5026195;28;46284;-71
2023/04/01 05:54:19;;;;;;;3.40;0.97;;;8.70;61.90;;;;;;5031785;28;46620;-72
2023/04/01 05:56:44;;;;;;;3.27;1.13;;;8.80;61.00;;;;;;5030367;28;45872;-71
2023/04/01 05:59:11;;;;;;;4.10;1.20;;;8.80;60.20;;;;;;5030786;28;46680;-71
2023/04/01 06:01:37;;;;;;;1.80;0.80;;;8.90;59.70;;;;;;5030678;28;46597;-71
2023/04/01 06:04:03;;;;;;;4.60;1.00;;;8.90;59.20;;;;;;5029960;28;46469;-71
2023/04/01 06:06:31;;;;;;;4.03;1.40;;;9.00;58.60;;;;;;5034103;28;46469;-71
2023/04/01 06:09:05;;;;;;;5.90;1.60;;;9.00;58.40;;;;;;5031140;28;45868;-70
2023/04/01 06:11:48;;;;;;;1.97;0.87;;;8.90;58.60;;;;;;5031683;28;46468;-71
2023/04/01 06:14:36;;;;;;;3.60;1.00;;;9.10;58.80;;;;;;5033916;28;48315;-71
2023/04/01 06:17:26;;;;;;;3.50;1.10;;;9.30;58.60;;;;;;5030087;28;46280;-71
2023/04/01 06:20:03;;;;;;;4.17;1.10;;;9.60;59.00;;;;;;5032975;28;46361;-70
2023/04/01 06:23:04;;;;;;;4.90;1.20;;;10.10;55.40;;;;;;5030790;28;46750;-71
2023/04/01 06:25:38;;;;;;;2.27;1.00;;;10.10;53.80;;;;;;5032590;28;46614;-71
2023/04/01 06:28:41;;;;;;;3.00;1.00;;;9.80;55.30;;;;;;5027916;28;46331;-72
2023/04/01 06:31:30;;;;;;;2.90;0.80;;;9.70;55.50;;;;;;5028638;28;46315;-72
2023/04/01 06:34:27;;;;;;;2.67;0.80;;;9.70;55.30;;;;;;5027349;28;46355;-71
2023/04/01 06:37:12;;;;;;;6.90;1.00;;;9.90;54.30;;;;;;5026122;28;47220;-72
2023/04/01 06:40:03;;;;;;;3.03;0.93;;;10.20;52.30;;;;;;5029446;28;46521;-71
2023/04/01 06:42:53;;;;;;;6.17;1.10;;;10.40;52.00;;;;;;5029758;28;46428;-71
2023/04/01 06:45:37;;;;;;;7.10;1.30;;;10.60;52.20;;;;;;5037306;28;45954;-72
2023/04/01 06:48:32;;;;;;;3.57;0.90;;;10.80;51.40;;;;;;5030228;28;46613;-72
2023/04/01 06:51:06;;;;;;;2.77;0.83;;;10.90;51.00;;;;;;5028583;28;46386;-70
2023/04/01 06:54:01;;;;;;;2.03;0.97;;;10.70;50.90;;;;;;5034355;28;46404;-71
2023/04/01 06:56:29;;;;;;;2.23;0.87;;;10.50;51.40;;;;;;5029526;28;46443;-67
2023/04/01 06:59:06;;;;;;;2.13;0.83;;;10.40;51.40;;;;;;5028370;28;48282;-70
2023/04/01 07:01:44;;;;;;;2.13;0.63;;;10.30;52.00;;;;;;5029946;28;46445;-70
2023/04/01 07:04:23;;;;;;;4.20;1.00;;;10.10;51.70;;;;;;5025847;28;46549;-71
2023/04/01 07:07:01;;;;;;;2.93;0.80;;;10.00;51.60;;;;;;5030385;28;46404;-72
2023/04/01 07:09:41;;;;;;;2.30;0.80;;;10.10;51.70;;;;;;5021604;28;47031;-71
2023/04/01 07:12:30;;;;;;;3.27;1.00;;;10.20;51.80;;;;;;5030616;28;46530;-72
2023/04/01 07:14:58;;;;;;;1.77;0.80;;;10.20;53.00;;;;;;5029435;28;46412;-71
2023/04/01 07:17:36;;;;;;;2.47;0.70;;;10.20;51.80;;;;;;5030675;28;46449;-71
2023/04/01 07:20:15;;;;;;;5.53;1.10;;;10.30;51.40;;;;;;5028785;28;46685;-71
2023/04/01 07:22:47;;;;;;;2.27;1.00;;;10.60;50.30;;;;;;5028587;28;46365;-71
2023/04/01 07:25:21;;;;;;;3.20;0.80;;;10.80;49.20;;;;;;5029462;28;46498;-73
2023/04/01 07:27:46;;;;;;;2.40;0.90;;;11.00;48.50;;;;;;5030172;28;46507;-71
2023/04/01 07:30:16;;;;;;;3.33;0.80;;;11.20;48.00;;;;;;5030514;28;46673;-71
2023/04/01 07:32:44;;;;;;;6.37;1.00;;;11.20;47.80;;;;;;5030523;28;46496;-72
2023/04/01 07:35:23;;;;;;;5.07;1.10;;;11.20;47.50;;;;;;5028175;28;46415;-71
2023/04/01 07:38:10;;;;;;;2.43;0.93;;;11.30;47.30;;;;;;5030934;28;46437;-71
2023/04/01 07:40:42;;;;;;;3.23;1.10;;;11.20;46.60;;;;;;5027734;28;46223;-70
2023/04/01 07:43:26;;;;;;;6.23;0.90;;;11.30;46.60;;;;;;5029073;28;46295;-71
2023/04/01 07:46:32;;;;;;;3.30;0.80;;;11.30;46.60;;;;;;5029585;28;46476;-70
2023/04/01 07:49:10;;;;;;;2.83;0.93;;;11.30;46.30;;;;;;5025810;28;46374;-70
2023/04/01 07:52:00;;;;;;;2.90;1.00;;;11.20;46.60;;;;;;5026946;28;46276;-71
2023/04/01 07:54:29;;;;;;;4.23;0.77;;;11.10;47.20;;;;;;5018406;28;46632;-70
2023/04/01 07:57:29;;;;;;;3.43;1.50;;;11.40;46.80;;;;;;5030047;28;46360;-70
2023/04/01 08:00:10;;;;;;;2.37;0.97;;;11.80;45.70;;;;;;5027594;28;46358;-71
2023/04/01 08:02:38;;;;;;;3.33;1.33;;;12.00;45.30;;;;;;5024965;28;46523;-71
2023/04/01 08:05:16;;;;;;;1.93;0.80;;;12.10;44.60;;;;;;5031551;28;46533;-70
2023/04/01 08:08:06;;;;;;;2.43;0.80;;;12.30;44.40;;;;;;5028629;28;45789;-70
2023/04/01 08:11:05;;;;;;;3.83;0.80;;;12.50;43.80;;;;;;5027088;28;47274;-70
2023/04/01 08:13:38;;;;;;;2.60;0.93;;;12.70;42.40;;;;;;5027023;28;46660;-70
2023/04/01 08:16:14;;;;;;;2.03;0.90;;;12.70;42.20;;;;;;5027044;28;46393;-71
2023/04/01 08:18:48;;;;;;;5.33;1.10;;;12.70;42.10;;;;;;5025501;28;46300;-70
2023/04/01 08:21:37;;;;;;;2.87;1.10;;;12.60;41.40;;;;;;5027671;28;46596;-70
2023/04/01 08:24:30;;;;;;;1.87;0.70;;;12.70;40.90;;;;;;5024820;28;46438;-71
2023/04/01 08:27:00;;;;;;;2.37;0.90;;;12.40;40.60;;;;;;5025704;28;46476;-71
2023/04/01 08:29:39;;;;;;;2.83;0.80;;;12.50;40.70;;;;;;5024118;28;46409;-70
2023/04/01 08:32:22;;;;;;;1.87;0.80;;;12.60;40.80;;;;;;5028382;28;46488;-71
2023/04/01 08:34:56;;;;;;;1.83;0.70;;;12.60;40.80;;;;;;5030335;28;46421;-70
2023/04/01 08:37:30;;;;;;;2.83;0.90;;;12.70;40.90;;;;;;5029052;28;46374;-70
2023/04/01 08:40:01;;;;;;;1.60;0.70;;;13.00;40.40;;;;;;5026645;28;46354;-70
2023/04/01 08:42:42;;;;;;;3.00;0.90;;;13.10;39.40;;;;;;5028854;28;46301;-71
2023/04/01 08:45:23;;;;;;;1.80;0.70;;;13.20;39.20;;;;;;5028783;28;46409;-70
2023/04/01 08:48:08;;;;;;;2.23;0.80;;;13.40;38.90;;;;;;5028949;28;46405;-70
2023/04/01 08:50:45;;;;;;;1.50;0.60;;;13.60;38.20;;;;;;5027815;28;46446;-71
2023/04/01 08:53:37;;;;;;;3.03;0.77;;;13.70;37.50;;;;;;5020952;28;46445;-73
2023/04/01 08:56:07;;;;;;;3.23;0.87;;;14.10;37.40;;;;;;5028119;28;46570;-72
2023/04/01 08:58:54;;;;;;;1.50;0.80;;;14.10;36.90;;;;;;5027095;28;46660;-71
2023/04/01 09:01:44;;;;;;;1.80;0.83;;;14.40;36.30;;;;;;5027221;28;46692;-70
2023/04/01 09:04:48;;;;;;;2.83;0.80;;;14.40;35.70;;;;;;5027304;28;46463;-69
2023/04/01 09:07:35;;;;;;;2.00;0.70;;;14.50;35.70;;;;;;5023930;28;47095;-70
2023/04/01 09:10:09;;;;;;;2.03;0.80;;;14.50;35.20;;;;;;5024462;28;46346;-70
2023/04/01 09:12:42;;;;;;;2.60;1.20;;;14.50;35.30;;;;;;5031554;28;46315;-70
2023/04/01 09:15:49;;;;;;;2.30;0.80;;;14.60;34.70;;;;;;5032608;28;45874;-70
2023/04/01 09:18:51;;;;;;;2.00;0.80;;;14.80;34.50;;;;;;5026643;28;46411;-70
2023/04/01 09:21:45;;;;;;;1.97;0.70;;;14.60;34.60;;;;;;5027331;28;46482;-72
2023/04/01 09:24:23;;;;;;;2.50;0.73;;;14.30;34.80;;;;;;5034490;28;46488;-71
2023/04/01 09:27:07;;;;;;;1.97;0.73;;;14.30;35.20;;;;;;5030782;28;46110;-72
2023/04/01 09:30:00;;;;;;;1.93;0.83;;;14.00;34.80;;;;;;5028585;28;46263;-70
2023/04/01 09:32:51;;;;;;;3.87;0.70;;;13.90;35.20;;;;;;5024195;28;46475;-70
2023/04/01 09:35:37;;;;;;;1.97;0.70;;;13.60;35.50;;;;;;5030269;28;46342;-71
2023/04/01 09:38:09;;;;;;;1.70;0.80;;;13.50;35.60;;;;;;5029513;28;46553;-70
2023/04/01 09:40:47;;;;;;;1.87;0.80;;;13.50;35.50;;;;;;5031247;28;47073;-71
2023/04/01 09:43:49;;;;;;;1.60;0.70;;;13.50;35.40;;;;;;5034390;28;46392;-70
2023/04/01 09:46:20;;;;;;;1.40;0.60;;;13.90;34.80;;;;;;5030411;28;46199;-70
2023/04/01 09:49:23;;;;;;;2.37;0.90;;;14.20;34.10;;;;;;5029329;28;46544;-72
2023/04/01 09:52:17;;;;;;;1.92;0.80;;;14.10;34.20;;;;;;5029900;28;46469;-71
2023/04/01 09:55:12;;;;;;;3.00;0.70;;;14.00;33.90;;;;;;5028205;28;46448;-70
2023/04/01 09:57:50;;;;;;;2.00;0.80;;;13.90;34.50;;;;;;5016023;28;46518;-70
2023/04/01 10:00:55;;;;;;;1.50;0.77;;;13.80;34.50;;;;;;5032505;28;46417;-68
2023/04/01 10:03:36;;;;;;;1.90;0.70;;;13.80;34.40;;;;;;5029923;28;48027;-68
2023/04/01 10:06:07;;;;;;;2.50;0.80;;;13.80;34.40;;;;;;5028661;28;45780;-69
2023/04/01 10:08:55;;;;;;;2.23;0.93;;;13.80;34.70;;;;;;5033161;28;46482;-71
2023/04/01 10:11:29;;;;;;;3.97;0.80;;;14.00;34.50;;;;;;5031601;28;46768;-72
2023/04/01 10:14:19;;;;;;;2.00;0.63;;;13.80;34.40;;;;;;5027354;28;46700;-72
2023/04/01 10:16:56;;;;;;;1.50;0.63;;;13.40;35.20;;;;;;5027991;28;46398;-69
2023/04/01 10:19:43;;;;;;;1.50;0.63;;;13.30;35.70;;;;;;5030537;28;46437;-70
2023/04/01 10:22:09;;;;;;;1.40;0.60;;;13.20;36.20;;;;;;5028879;28;46367;-72
2023/04/01 10:25:11;;;;;;;2.40;1.03;;;13.20;36.40;;;;;;5032208;28;46334;-68
2023/04/01 10:28:01;;;;;;;1.50;0.70;;;13.00;36.60;;;;;;5029460;28;46327;-70
2023/04/01 10:31:02;;;;;;;1.60;0.70;;;13.10;36.70;;;;;;5028328;28;46698;-70
2023/04/01 10:33:46;;;;;;;1.90;0.70;;;12.80;37.10;;;;;;5031429;28;46421;-71
2023/04/01 10:36:37;;;;;;;1.70;0.70;;;12.70;37.50;;;;;;5028343;28;46629;-69
2023/04/01 10:39:21;;;;;;;1.50;0.70;;;12.70;37.70;;;;;;5030422;28;46721;-73
2023/04/01 10:42:05;;;;;;;2.17;1.00;;;12.60;38.20;;;;;;5027648;28;46311;-69
2023/04/01 10:44:58;;;;;;;1.83;1.07;;;12.50;38.50;;;;;;5028967;28;46820;-69
2023/04/01 10:48:05;;;;;;;1.83;0.87;;;12.50;38.90;;;;;;5025718;28;46768;-70
2023/04/01 10:50:54;;;;;;;2.20;0.80;;;12.50;39.40;;;;;;5027935;28;46366;-69
2023/04/01 10:54:15;;;;;;;2.03;1.00;;;12.40;39.70;;;;;;5017667;28;46854;-70
2023/04/01 10:56:53;;;;;;;2.60;1.20;;;12.00;40.20;;;;;;5018082;28;46517;-68
2023/04/01 11:00:03;;;;;;;5.40;0.70;;;11.60;41.30;;;;;;5030732;28;46126;-70
2023/04/01 11:02:50;;;;;;;2.43;0.80;;;11.40;42.20;;;;;;5026712;28;47088;-70
2023/04/01 11:05:37;;;;;;;1.77;0.80;;;11.00;43.20;;;;;;5028973;28;46459;-70
2023/04/01 11:08:27;;;;;;;2.00;0.80;;;10.80;43.80;;;;;;5027762;28;46507;-70
2023/04/01 11:11:34;;;;;;;2.37;1.10;;;10.50;45.50;;;;;;5025551;28;47329;-71
2023/04/01 11:14:00;;;;;;;2.70;1.50;;;10.50;45.80;;;;;;5029828;28;45884;-70
2023/04/01 11:16:44;;;;;;;5.50;1.70;;;10.40;45.80;;;;;;5029415;28;46294;-69
2023/04/01 11:19:30;;;;;;;2.63;1.20;;;10.40;45.80;;;;;;5028312;28;45816;-69
2023/04/01 11:22:20;;;;;;;3.90;1.40;;;10.40;46.00;;;;;;5028099;28;48052;-68
2023/04/01 11:25:04;;;;;;;4.20;0.97;;;10.30;46.20;;;;;;5035664;28;46532;-69
2023/04/01 11:27:51;;;;;;;2.87;1.50;;;10.40;46.00;;;;;;5025611;28;47341;-69
2023/04/01 11:30:33;;;;;;;2.63;1.13;;;10.40;46.00;;;;;;5027209;28;46406;-67
2023/04/01 11:33:27;;;;;;;1.70;0.77;;;10.30;46.30;;;;;;5026821;28;46491;-68
2023/04/01 11:36:18;;;;;;;2.00;0.90;;;10.30;46.50;;;;;;5027209;28;46435;-67
2023/04/01 11:38:56;;;;;;;2.70;1.00;;;10.30;46.60;;;;;;5020776;28;46424;-68
2023/04/01 11:42:06;;;;;;;26.73;12.23;;;10.30;46.60;;;;;;5026899;28;46271;-68
2023/04/01 11:44:39;;;;;;;2.00;0.83;;;10.30;46.60;;;;;;4988891;28;46203;-69
2023/04/01 11:47:26;;;;;;;1.30;0.60;;;10.40;46.60;;;;;;4988634;28;46503;-66
2023/04/01 11:49:52;;;;;;;2.47;0.70;;;10.50;46.60;;;;;;5016717;28;46865;-69
2023/04/01 11:52:50;;;;;;;1.60;0.73;;;10.50;46.70;;;;;;5031141;28;46668;-66
2023/04/01 11:55:40;;;;;;;2.37;0.77;;;10.50;46.80;;;;;;5029488;28;46612;-67
2023/04/01 11:58:23;;;;;;;2.30;0.90;;;10.50;46.70;;;;;;5028843;28;45826;-69
2023/04/01 12:00:57;;;;;;;1.40;0.70;;;10.70;46.40;;;;;;5026476;28;46421;-71
2023/04/01 12:03:42;;;;;;;1.20;0.60;;;10.80;46.20;;;;;;5029804;28;46406;-70
2023/04/01 12:06:44;;;;;;;1.87;0.80;;;10.90;46.30;;;;;;5026564;28;46417;-70
2023/04/01 12:09:26;;;;;;;1.50;0.80;;;11.20;45.90;;;;;;5026699;28;45807;-69
2023/04/01 12:12:15;;;;;;;1.30;0.60;;;11.30;45.50;;;;;;5028671;28;46158;-70
2023/04/01 12:15:09;;;;;;;1.90;0.80;;;11.40;45.50;;;;;;5026197;28;46752;-70
2023/04/01 12:17:56;;;;;;;1.50;0.60;;;11.40;45.50;;;;;;5024804;28;46614;-70
2023/04/01 12:20:53;;;;;;;1.53;0.70;;;11.40;45.50;;;;;;5031332;28;45887;-70
2023/04/01 12:23:43;;;;;;;1.33;0.70;;;11.50;45.60;;;;;;5026464;28;46442;-70
2023/04/01 12:26:27;;;;;;;1.23;0.60;;;11.50;45.70;;;;;;5027909;28;46437;-70
2023/04/01 12:29:19;;;;;;;1.87;0.70;;;11.50;45.60;;;;;;5024889;28;46425;-70
2023/04/01 12:32:17;;;;;;;1.90;0.83;;;11.50;45.70;;;;;;5029411;28;46511;-70
2023/04/01 12:34:57;;;;;;;1.93;0.90;;;11.60;46.90;;;;;;5026002;28;46767;-69
2023/04/01 12:37:48;;;;;;;1.70;0.77;;;11.60;45.80;;;;;;5030189;28;46508;-68
2023/04/01 12:40:21;;;;;;;2.43;1.50;;;11.50;46.40;;;;;;5032070;28;47197;-70
2023/04/01 12:43:32;;;;;;;5.30;3.03;;;11.50;46.40;;;;;;5023434;28;46722;-70
2023/04/01 12:46:06;;;;;;;1.70;0.90;;;11.40;46.90;;;;;;5026539;28;46488;-70
2023/04/01 12:48:37;;;;;;;3.77;1.40;;;11.50;47.00;;;;;;5024426;28;45923;-68
2023/04/01 12:51:15;;;;;;;5.17;2.77;;;11.50;47.00;;;;;;5025012;28;46613;-70
2023/04/01 12:53:59;;;;;;;2.60;1.30;;;11.50;47.00;;;;;;5025372;28;46418;-69
2023/04/01 12:56:27;;;;;;;3.47;1.20;;;11.50;47.40;;;;;;5026902;28;45791;-71
2023/04/01 12:59:33;;;;;;;2.23;1.00;;;11.50;47.30;;;;;;5025481;28;46319;-67
2023/04/01 13:02:10;;;;;;;2.43;1.13;;;11.60;48.60;;;;;;5026908;28;46410;-69
2023/04/01 13:04:49;;;;;;;4.70;1.90;;;11.60;47.30;;;;;;5030329;28;46840;-68
2023/04/01 13:07:24;;;;;;;3.53;1.40;;;11.80;47.40;;;;;;5027150;28;46582;-70
2023/04/01 13:09:49;;;;;;;2.77;1.60;;;11.80;47.40;;;;;;5030078;28;46360;-71
2023/04/01 13:12:40;;;;;;;1.77;0.90;;;11.90;47.60;;;;;;5031018;28;46351;-70
2023/04/01 13:15:06;;;;;;;2.33;0.90;;;11.90;47.70;;;;;;5031951;28;46524;-69
2023/04/01 13:17:37;;;;;;;1.90;0.80;;;11.90;47.70;;;;;;5031519;28;46444;-68
2023/04/01 13:20:09;;;;;;;2.27;1.20;;;11.70;48.00;;;;;;5034382;28;46407;-68
2023/04/01 13:23:07;;;;;;;1.40;0.70;;;11.70;48.20;;;;;;5031390;28;47103;-68
2023/04/01 13:25:50;;;;;;;1.80;0.90;;;11.80;48.10;;;;;;5029000;28;46802;-69
2023/04/01 13:28:20;;;;;;;3.00;1.67;;;11.80;47.70;;;;;;5035603;28;46259;-69
2023/04/01 13:30:58;;;;;;;1.40;0.70;;;12.00;47.50;;;;;;5033888;28;46420;-69
2023/04/01 13:33:29;;;;;;;1.80;0.80;;;12.30;47.40;;;;;;5029617;28;46466;-69
2023/04/01 13:36:16;;;;;;;2.23;0.80;;;12.20;47.50;;;;;;5032544;28;46488;-69
2023/04/01 13:38:42;;;;;;;1.70;0.80;;;12.00;47.90;;;;;;5027863;28;46452;-68
2023/04/01 13:41:13;;;;;;;2.30;1.20;;;12.00;48.00;;;;;;5033217;28;46511;-67
2023/04/01 13:43:57;;;;;;;2.30;1.37;;;12.00;48.00;;;;;;5032260;28;46139;-68